sensor_id;sensor_type;location;lat;lon;timestamp;P1;durP1;ratioP1;P2;durP2;ratioP2
7707;SDS011;3896;48.758;8.888;2023-06-26T00:00:39;5.80;;;4.83;;
7707;SDS011;3896;48.758;8.888;2023-06-26T00:03:04;6.07;;;4.93;;
7707;SDS011;3896;48.758;8.888;2023-06-26T00:05:30;7.70;;;5.10;;
7707;SDS011;3896;48.758;8.888;2023-06-26T00:07:55;6.50;;;5.50;;
7707;SDS011;3896;48.758;8.888;2023-06-26T00:10:21;6.23;;;5.37;;
7707;SDS011;3896;48.758;8.888;2023-06-26T00:12:47;6.90;;;5.43;;
7707;SDS011;3896;48.758;8.888;2023-06-26T00:15:13;6.70;;;5.57;;
7707;SDS011;3896;48.758;8.888;2023-06-26T00:17:38;6.47;;;5.30;;
7707;SDS011;3896;48.758;8.888;2023-06-26T00:20:04;7.40;;;5.73;;
7707;SDS011;3896;48.758;8.888;2023-06-26T00:22:33;6.73;;;5.50;;
7707;SDS011;3896;48.758;8.888;2023-06-26T00:24:59;8.60;;;5.70;;
7707;SDS011;3896;48.758;8.888;2023-06-26T00:27:24;6.73;;;5.43;;
7707;SDS011;3896;48.758;8.888;2023-06-26T00:29:50;6.37;;;4.97;;
7707;SDS011;3896;48.758;8.888;2023-06-26T00:32:17;8.40;;;5.47;;
7707;SDS011;3896;48.758;8.888;2023-06-26T00:34:43;8.47;;;5.43;;
7707;SDS011;3896;48.758;8.888;2023-06-26T00:37:08;6.53;;;4.93;;
7707;SDS011;3896;48.758;8.888;2023-06-26T00:39:34;6.70;;;5.27;;
7707;SDS011;3896;48.758;8.888;2023-06-26T00:42:00;6.23;;;5.40;;
7707;SDS011;3896;48.758;8.888;2023-06-26T00:44:25;6.00;;;5.00;;
7707;SDS011;3896;48.758;8.888;2023-06-26T00:46:51;7.47;;;5.30;;
7707;SDS011;3896;48.758;8.888;2023-06-26T00:49:16;5.73;;;5.00;;
7707;SDS011;3896;48.758;8.888;2023-06-26T00:51:42;7.47;;;5.53;;
7707;SDS011;3896;48.758;8.888;2023-06-26T00:54:08;8.83;;;5.43;;
7707;SDS011;3896;48.758;8.888;2023-06-26T00:56:34;7.27;;;5.17;;
7707;SDS011;3896;48.758;8.888;2023-06-26T00:59:00;6.63;;;5.23;;
7707;SDS011;3896;48.758;8.888;2023-06-26T01:01:25;6.83;;;5.47;;
7707;SDS011;3896;48.758;8.888;2023-06-26T01:03:51;6.57;;;5.63;;
7707;SDS011;3896;48.758;8.888;2023-06-26T01:06:19;7.30;;;5.10;;
7707;SDS011;3896;48.758;8.888;2023-06-26T01:08:47;6.07;;;5.47;;
7707;SDS011;3896;48.758;8.888;2023-06-26T01:11:13;7.37;;;5.40;;
7707;SDS011;3896;48.758;8.888;2023-06-26T01:13:40;8.90;;;5.20;;
7707;SDS011;3896;48.758;8.888;2023-06-26T01:16:09;5.80;;;5.20;;
7707;SDS011;3896;48.758;8.888;2023-06-26T01:18:35;7.10;;;5.53;;
7707;SDS011;3896;48.758;8.888;2023-06-26T01:21:02;6.90;;;5.43;;
7707;SDS011;3896;48.758;8.888;2023-06-26T01:26:34;6.30;;;5.20;;
7707;SDS011;3896;48.758;8.888;2023-06-26T01:29:00;7.67;;;5.43;;
7707;SDS011;3896;48.758;8.888;2023-06-26T01:31:29;7.13;;;6.07;;
7707;SDS011;3896;48.758;8.888;2023-06-26T01:33:56;7.37;;;5.20;;
7707;SDS011;3896;48.758;8.888;2023-06-26T01:36:23;8.67;;;5.13;;
7707;SDS011;3896;48.758;8.888;2023-06-26T01:38:49;7.90;;;5.70;;
7707;SDS011;3896;48.758;8.888;2023-06-26T01:41:16;7.30;;;5.70;;
7707;SDS011;3896;48.758;8.888;2023-06-26T01:46:39;7.80;;;5.50;;
7707;SDS011;3896;48.758;8.888;2023-06-26T01:52:20;5.63;;;4.73;;
7707;SDS011;3896;48.758;8.888;2023-06-26T01:55:12;6.40;;;5.30;;
7707;SDS011;3896;48.758;8.888;2023-06-26T01:57:44;7.90;;;5.30;;
7707;SDS011;3896;48.758;8.888;2023-06-26T02:00:12;6.60;;;5.03;;
7707;SDS011;3896;48.758;8.888;2023-06-26T02:02:43;6.00;;;4.87;;
7707;SDS011;3896;48.758;8.888;2023-06-26T02:05:09;7.13;;;5.43;;
7707;SDS011;3896;48.758;8.888;2023-06-26T02:07:35;8.93;;;5.63;;
7707;SDS011;3896;48.758;8.888;2023-06-26T02:10:01;6.47;;;5.47;;
7707;SDS011;3896;48.758;8.888;2023-06-26T02:12:27;6.67;;;5.10;;
7707;SDS011;3896;48.758;8.888;2023-06-26T02:14:52;6.00;;;5.13;;
7707;SDS011;3896;48.758;8.888;2023-06-26T02:17:18;7.20;;;5.23;;
7707;SDS011;3896;48.758;8.888;2023-06-26T02:19:44;7.17;;;5.07;;
7707;SDS011;3896;48.758;8.888;2023-06-26T02:22:15;6.50;;;5.57;;
7707;SDS011;3896;48.758;8.888;2023-06-26T02:24:42;6.23;;;5.27;;
7707;SDS011;3896;48.758;8.888;2023-06-26T02:27:08;7.30;;;5.53;;
7707;SDS011;3896;48.758;8.888;2023-06-26T02:29:34;8.23;;;5.27;;
7707;SDS011;3896;48.758;8.888;2023-06-26T02:32:00;6.87;;;4.93;;
7707;SDS011;3896;48.758;8.888;2023-06-26T02:34:26;7.37;;;5.27;;
7707;SDS011;3896;48.758;8.888;2023-06-26T02:36:52;6.33;;;5.40;;
7707;SDS011;3896;48.758;8.888;2023-06-26T02:39:20;6.83;;;5.20;;
7707;SDS011;3896;48.758;8.888;2023-06-26T02:41:45;6.90;;;5.33;;
7707;SDS011;3896;48.758;8.888;2023-06-26T02:44:11;6.57;;;5.13;;
7707;SDS011;3896;48.758;8.888;2023-06-26T02:46:37;6.57;;;4.87;;
7707;SDS011;3896;48.758;8.888;2023-06-26T02:49:03;5.87;;;4.77;;
7707;SDS011;3896;48.758;8.888;2023-06-26T02:51:29;6.37;;;4.80;;
7707;SDS011;3896;48.758;8.888;2023-06-26T02:53:56;6.70;;;5.23;;
7707;SDS011;3896;48.758;8.888;2023-06-26T02:56:22;9.23;;;5.87;;
7707;SDS011;3896;48.758;8.888;2023-06-26T02:58:47;6.27;;;5.30;;
7707;SDS011;3896;48.758;8.888;2023-06-26T03:01:13;6.90;;;5.20;;
7707;SDS011;3896;48.758;8.888;2023-06-26T03:03:40;6.67;;;5.47;;
7707;SDS011;3896;48.758;8.888;2023-06-26T03:06:07;5.87;;;5.27;;
7707;SDS011;3896;48.758;8.888;2023-06-26T03:08:33;6.00;;;5.33;;
7707;SDS011;3896;48.758;8.888;2023-06-26T03:11:01;6.27;;;5.23;;
7707;SDS011;3896;48.758;8.888;2023-06-26T03:13:26;7.03;;;4.73;;
7707;SDS011;3896;48.758;8.888;2023-06-26T03:15:52;7.40;;;5.33;;
7707;SDS011;3896;48.758;8.888;2023-06-26T03:18:17;7.60;;;5.53;;
7707;SDS011;3896;48.758;8.888;2023-06-26T03:20:43;6.00;;;5.40;;
7707;SDS011;3896;48.758;8.888;2023-06-26T03:23:09;7.33;;;5.10;;
7707;SDS011;3896;48.758;8.888;2023-06-26T03:25:34;7.00;;;5.50;;
7707;SDS011;3896;48.758;8.888;2023-06-26T03:28:00;9.63;;;6.17;;
7707;SDS011;3896;48.758;8.888;2023-06-26T03:30:25;6.50;;;5.40;;
7707;SDS011;3896;48.758;8.888;2023-06-26T03:32:51;7.47;;;5.70;;
7707;SDS011;3896;48.758;8.888;2023-06-26T03:35:17;6.20;;;5.07;;
7707;SDS011;3896;48.758;8.888;2023-06-26T03:37:42;6.97;;;5.43;;
7707;SDS011;3896;48.758;8.888;2023-06-26T03:40:08;8.03;;;5.60;;
7707;SDS011;3896;48.758;8.888;2023-06-26T03:42:34;6.93;;;5.50;;
7707;SDS011;3896;48.758;8.888;2023-06-26T03:45:00;5.90;;;5.20;;
7707;SDS011;3896;48.758;8.888;2023-06-26T03:47:25;6.53;;;5.50;;
7707;SDS011;3896;48.758;8.888;2023-06-26T03:49:51;9.97;;;5.57;;
7707;SDS011;3896;48.758;8.888;2023-06-26T03:52:16;8.03;;;5.77;;
7707;SDS011;3896;48.758;8.888;2023-06-26T03:54:42;7.40;;;4.90;;
7707;SDS011;3896;48.758;8.888;2023-06-26T03:57:08;8.00;;;4.67;;
7707;SDS011;3896;48.758;8.888;2023-06-26T03:59:33;8.23;;;5.90;;
7707;SDS011;3896;48.758;8.888;2023-06-26T04:01:59;5.87;;;5.20;;
7707;SDS011;3896;48.758;8.888;2023-06-26T04:04:24;7.77;;;5.40;;
7707;SDS011;3896;48.758;8.888;2023-06-26T04:06:50;6.67;;;5.20;;
7707;SDS011;3896;48.758;8.888;2023-06-26T04:09:16;6.07;;;5.47;;
7707;SDS011;3896;48.758;8.888;2023-06-26T04:11:41;6.07;;;5.13;;
7707;SDS011;3896;48.758;8.888;2023-06-26T04:14:07;6.67;;;5.27;;
7707;SDS011;3896;48.758;8.888;2023-06-26T04:16:33;6.47;;;5.40;;
7707;SDS011;3896;48.758;8.888;2023-06-26T04:18:58;6.97;;;5.10;;
7707;SDS011;3896;48.758;8.888;2023-06-26T04:21:24;6.73;;;4.90;;
7707;SDS011;3896;48.758;8.888;2023-06-26T04:23:50;10.57;;;6.83;;
7707;SDS011;3896;48.758;8.888;2023-06-26T04:26:16;7.80;;;5.67;;
7707;SDS011;3896;48.758;8.888;2023-06-26T04:28:41;7.63;;;5.50;;
7707;SDS011;3896;48.758;8.888;2023-06-26T04:31:07;7.37;;;4.93;;
7707;SDS011;3896;48.758;8.888;2023-06-26T04:33:36;9.77;;;5.70;;
7707;SDS011;3896;48.758;8.888;2023-06-26T04:36:03;6.90;;;5.00;;
7707;SDS011;3896;48.758;8.888;2023-06-26T04:38:30;6.70;;;5.50;;
7707;SDS011;3896;48.758;8.888;2023-06-26T04:40:59;6.53;;;5.00;;
7707;SDS011;3896;48.758;8.888;2023-06-26T04:43:25;5.77;;;5.07;;
7707;SDS011;3896;48.758;8.888;2023-06-26T04:45:50;7.13;;;5.20;;
7707;SDS011;3896;48.758;8.888;2023-06-26T04:48:16;7.10;;;5.40;;
7707;SDS011;3896;48.758;8.888;2023-06-26T04:50:42;6.50;;;5.80;;
7707;SDS011;3896;48.758;8.888;2023-06-26T04:53:07;7.23;;;5.67;;
7707;SDS011;3896;48.758;8.888;2023-06-26T04:55:33;10.17;;;5.63;;
7707;SDS011;3896;48.758;8.888;2023-06-26T04:58:00;8.80;;;5.87;;
7707;SDS011;3896;48.758;8.888;2023-06-26T05:00:25;7.30;;;6.07;;
7707;SDS011;3896;48.758;8.888;2023-06-26T05:02:51;7.20;;;5.17;;
7707;SDS011;3896;48.758;8.888;2023-06-26T05:05:28;6.80;;;5.30;;
7707;SDS011;3896;48.758;8.888;2023-06-26T05:07:54;7.17;;;5.63;;
7707;SDS011;3896;48.758;8.888;2023-06-26T05:10:21;8.07;;;5.70;;
7707;SDS011;3896;48.758;8.888;2023-06-26T05:12:47;6.67;;;5.63;;
7707;SDS011;3896;48.758;8.888;2023-06-26T05:15:12;7.13;;;5.57;;
7707;SDS011;3896;48.758;8.888;2023-06-26T05:17:38;9.00;;;5.97;;
7707;SDS011;3896;48.758;8.888;2023-06-26T05:20:03;7.70;;;6.60;;
7707;SDS011;3896;48.758;8.888;2023-06-26T05:22:34;6.50;;;5.53;;
7707;SDS011;3896;48.758;8.888;2023-06-26T05:25:03;8.63;;;6.30;;
7707;SDS011;3896;48.758;8.888;2023-06-26T05:27:30;7.53;;;5.90;;
7707;SDS011;3896;48.758;8.888;2023-06-26T05:29:56;7.60;;;5.73;;
7707;SDS011;3896;48.758;8.888;2023-06-26T05:32:22;6.73;;;5.33;;
7707;SDS011;3896;48.758;8.888;2023-06-26T05:34:48;7.20;;;5.97;;
7707;SDS011;3896;48.758;8.888;2023-06-26T05:37:16;8.53;;;6.33;;
7707;SDS011;3896;48.758;8.888;2023-06-26T05:39:45;8.23;;;6.40;;
7707;SDS011;3896;48.758;8.888;2023-06-26T05:42:11;7.10;;;5.17;;
7707;SDS011;3896;48.758;8.888;2023-06-26T05:44:37;6.43;;;4.97;;
7707;SDS011;3896;48.758;8.888;2023-06-26T05:47:02;5.97;;;4.70;;
7707;SDS011;3896;48.758;8.888;2023-06-26T05:49:28;6.47;;;5.10;;
7707;SDS011;3896;48.758;8.888;2023-06-26T05:51:54;8.80;;;5.80;;
7707;SDS011;3896;48.758;8.888;2023-06-26T05:54:19;5.87;;;4.60;;
7707;SDS011;3896;48.758;8.888;2023-06-26T05:56:46;6.57;;;4.87;;
7707;SDS011;3896;48.758;8.888;2023-06-26T05:59:13;8.43;;;5.03;;
7707;SDS011;3896;48.758;8.888;2023-06-26T06:01:40;6.43;;;5.00;;
7707;SDS011;3896;48.758;8.888;2023-06-26T06:04:06;5.53;;;4.63;;
7707;SDS011;3896;48.758;8.888;2023-06-26T06:06:31;6.73;;;4.73;;
7707;SDS011;3896;48.758;8.888;2023-06-26T06:08:57;5.13;;;4.63;;
7707;SDS011;3896;48.758;8.888;2023-06-26T06:11:22;8.13;;;5.17;;
7707;SDS011;3896;48.758;8.888;2023-06-26T06:13:48;5.67;;;4.50;;
7707;SDS011;3896;48.758;8.888;2023-06-26T06:16:14;8.03;;;5.33;;
7707;SDS011;3896;48.758;8.888;2023-06-26T06:18:39;7.17;;;5.33;;
7707;SDS011;3896;48.758;8.888;2023-06-26T06:21:05;8.20;;;5.03;;
7707;SDS011;3896;48.758;8.888;2023-06-26T06:23:31;5.97;;;5.37;;
7707;SDS011;3896;48.758;8.888;2023-06-26T06:25:56;6.87;;;4.40;;
7707;SDS011;3896;48.758;8.888;2023-06-26T06:28:21;4.77;;;4.23;;
7707;SDS011;3896;48.758;8.888;2023-06-26T06:30:47;6.67;;;4.80;;
7707;SDS011;3896;48.758;8.888;2023-06-26T06:33:13;6.47;;;4.93;;
7707;SDS011;3896;48.758;8.888;2023-06-26T06:35:39;5.23;;;4.27;;
7707;SDS011;3896;48.758;8.888;2023-06-26T06:38:05;5.50;;;4.03;;
7707;SDS011;3896;48.758;8.888;2023-06-26T06:40:30;5.33;;;4.53;;
7707;SDS011;3896;48.758;8.888;2023-06-26T06:42:56;4.87;;;4.37;;
7707;SDS011;3896;48.758;8.888;2023-06-26T06:45:21;5.73;;;4.63;;
7707;SDS011;3896;48.758;8.888;2023-06-26T06:47:47;7.87;;;5.40;;
7707;SDS011;3896;48.758;8.888;2023-06-26T06:50:12;8.13;;;5.57;;
7707;SDS011;3896;48.758;8.888;2023-06-26T06:52:40;7.23;;;4.80;;
7707;SDS011;3896;48.758;8.888;2023-06-26T06:55:08;4.43;;;4.00;;
7707;SDS011;3896;48.758;8.888;2023-06-26T06:57:37;6.80;;;4.40;;
7707;SDS011;3896;48.758;8.888;2023-06-26T07:00:07;4.37;;;3.73;;
7707;SDS011;3896;48.758;8.888;2023-06-26T07:02:38;5.40;;;4.07;;
7707;SDS011;3896;48.758;8.888;2023-06-26T07:05:04;4.03;;;3.70;;
7707;SDS011;3896;48.758;8.888;2023-06-26T07:07:31;4.47;;;3.90;;
7707;SDS011;3896;48.758;8.888;2023-06-26T07:10:02;4.30;;;3.90;;
7707;SDS011;3896;48.758;8.888;2023-06-26T07:12:33;4.30;;;3.77;;
7707;SDS011;3896;48.758;8.888;2023-06-26T07:15:00;4.67;;;4.23;;
7707;SDS011;3896;48.758;8.888;2023-06-26T07:17:29;4.30;;;3.90;;
7707;SDS011;3896;48.758;8.888;2023-06-26T07:19:55;4.47;;;3.93;;
7707;SDS011;3896;48.758;8.888;2023-06-26T07:22:22;4.10;;;3.67;;
7707;SDS011;3896;48.758;8.888;2023-06-26T07:24:48;4.07;;;3.33;;
7707;SDS011;3896;48.758;8.888;2023-06-26T07:27:14;4.63;;;3.63;;
7707;SDS011;3896;48.758;8.888;2023-06-26T07:29:40;4.17;;;3.70;;
7707;SDS011;3896;48.758;8.888;2023-06-26T07:32:06;3.50;;;2.97;;
7707;SDS011;3896;48.758;8.888;2023-06-26T07:34:32;3.40;;;3.10;;
7707;SDS011;3896;48.758;8.888;2023-06-26T07:36:57;4.20;;;3.80;;
7707;SDS011;3896;48.758;8.888;2023-06-26T07:39:23;5.37;;;3.77;;
7707;SDS011;3896;48.758;8.888;2023-06-26T07:41:49;6.23;;;3.90;;
7707;SDS011;3896;48.758;8.888;2023-06-26T07:44:14;3.87;;;3.27;;
7707;SDS011;3896;48.758;8.888;2023-06-26T07:46:40;4.03;;;3.50;;
7707;SDS011;3896;48.758;8.888;2023-06-26T07:49:05;4.23;;;3.83;;
7707;SDS011;3896;48.758;8.888;2023-06-26T07:51:31;7.07;;;3.27;;
7707;SDS011;3896;48.758;8.888;2023-06-26T07:53:56;4.07;;;3.63;;
7707;SDS011;3896;48.758;8.888;2023-06-26T07:56:22;4.47;;;3.40;;
7707;SDS011;3896;48.758;8.888;2023-06-26T07:58:48;4.30;;;3.70;;
7707;SDS011;3896;48.758;8.888;2023-06-26T08:01:13;4.00;;;3.33;;
7707;SDS011;3896;48.758;8.888;2023-06-26T08:03:39;11.80;;;3.80;;
7707;SDS011;3896;48.758;8.888;2023-06-26T08:06:05;4.10;;;3.70;;
7707;SDS011;3896;48.758;8.888;2023-06-26T08:08:31;4.13;;;3.60;;
7707;SDS011;3896;48.758;8.888;2023-06-26T08:10:56;3.83;;;3.37;;
7707;SDS011;3896;48.758;8.888;2023-06-26T08:13:22;4.73;;;3.40;;
7707;SDS011;3896;48.758;8.888;2023-06-26T08:15:47;4.10;;;3.47;;
7707;SDS011;3896;48.758;8.888;2023-06-26T08:18:13;4.03;;;3.63;;
7707;SDS011;3896;48.758;8.888;2023-06-26T08:20:38;4.10;;;3.57;;
7707;SDS011;3896;48.758;8.888;2023-06-26T08:23:04;4.27;;;3.83;;
7707;SDS011;3896;48.758;8.888;2023-06-26T08:25:30;4.93;;;4.43;;
7707;SDS011;3896;48.758;8.888;2023-06-26T08:27:55;4.47;;;3.83;;
7707;SDS011;3896;48.758;8.888;2023-06-26T08:30:21;3.70;;;3.40;;
7707;SDS011;3896;48.758;8.888;2023-06-26T08:32:47;4.97;;;4.00;;
7707;SDS011;3896;48.758;8.888;2023-06-26T08:35:13;4.63;;;4.10;;
7707;SDS011;3896;48.758;8.888;2023-06-26T08:37:38;3.70;;;3.40;;
7707;SDS011;3896;48.758;8.888;2023-06-26T08:40:04;5.23;;;4.10;;
7707;SDS011;3896;48.758;8.888;2023-06-26T08:42:31;5.83;;;3.40;;
7707;SDS011;3896;48.758;8.888;2023-06-26T08:44:56;6.97;;;4.43;;
7707;SDS011;3896;48.758;8.888;2023-06-26T08:47:22;3.90;;;3.50;;
7707;SDS011;3896;48.758;8.888;2023-06-26T08:52:36;3.93;;;3.60;;
7707;SDS011;3896;48.758;8.888;2023-06-26T08:55:09;4.90;;;3.90;;
7707;SDS011;3896;48.758;8.888;2023-06-26T08:57:38;4.25;;;3.70;;
7707;SDS011;3896;48.758;8.888;2023-06-26T09:00:05;6.60;;;3.70;;
7707;SDS011;3896;48.758;8.888;2023-06-26T09:02:33;3.95;;;3.60;;
7707;SDS011;3896;48.758;8.888;2023-06-26T09:05:01;5.05;;;3.75;;
7707;SDS011;3896;48.758;8.888;2023-06-26T09:07:27;4.75;;;3.92;;
7707;SDS011;3896;48.758;8.888;2023-06-26T09:09:53;5.07;;;4.32;;
7707;SDS011;3896;48.758;8.888;2023-06-26T09:12:19;6.22;;;3.65;;
7707;SDS011;3896;48.758;8.888;2023-06-26T09:14:45;5.75;;;3.80;;
7707;SDS011;3896;48.758;8.888;2023-06-26T09:17:12;4.50;;;3.60;;
7707;SDS011;3896;48.758;8.888;2023-06-26T09:19:38;4.70;;;4.18;;
7707;SDS011;3896;48.758;8.888;2023-06-26T09:22:04;4.72;;;4.22;;
7707;SDS011;3896;48.758;8.888;2023-06-26T09:24:29;5.95;;;4.30;;
7707;SDS011;3896;48.758;8.888;2023-06-26T09:26:55;5.40;;;4.03;;
7707;SDS011;3896;48.758;8.888;2023-06-26T09:29:21;4.65;;;4.07;;
7707;SDS011;3896;48.758;8.888;2023-06-26T09:31:47;5.20;;;4.10;;
7707;SDS011;3896;48.758;8.888;2023-06-26T09:34:12;4.70;;;4.30;;
7707;SDS011;3896;48.758;8.888;2023-06-26T09:36:38;5.45;;;4.18;;
7707;SDS011;3896;48.758;8.888;2023-06-26T09:39:04;4.40;;;4.00;;
7707;SDS011;3896;48.758;8.888;2023-06-26T09:41:33;5.55;;;4.35;;
7707;SDS011;3896;48.758;8.888;2023-06-26T09:44:01;8.50;;;4.43;;
7707;SDS011;3896;48.758;8.888;2023-06-26T09:46:28;11.00;;;4.93;;
7707;SDS011;3896;48.758;8.888;2023-06-26T09:49:29;7.55;;;4.25;;
7707;SDS011;3896;48.758;8.888;2023-06-26T09:51:49;7.90;;;4.13;;
7707;SDS011;3896;48.758;8.888;2023-06-26T09:54:16;5.88;;;3.85;;
7707;SDS011;3896;48.758;8.888;2023-06-26T09:56:45;4.93;;;4.20;;
7707;SDS011;3896;48.758;8.888;2023-06-26T09:59:10;5.97;;;4.40;;
7707;SDS011;3896;48.758;8.888;2023-06-26T10:01:39;9.20;;;4.97;;
7707;SDS011;3896;48.758;8.888;2023-06-26T10:04:06;5.88;;;4.80;;
7707;SDS011;3896;48.758;8.888;2023-06-26T10:06:36;4.88;;;4.40;;
7707;SDS011;3896;48.758;8.888;2023-06-26T10:09:06;6.78;;;5.22;;
7707;SDS011;3896;48.758;8.888;2023-06-26T10:11:35;5.80;;;4.07;;
7707;SDS011;3896;48.758;8.888;2023-06-26T10:14:04;7.82;;;4.55;;
7707;SDS011;3896;48.758;8.888;2023-06-26T10:16:32;6.18;;;5.00;;
7707;SDS011;3896;48.758;8.888;2023-06-26T10:19:02;5.75;;;4.65;;
7707;SDS011;3896;48.758;8.888;2023-06-26T10:21:31;11.43;;;4.38;;
7707;SDS011;3896;48.758;8.888;2023-06-26T10:24:03;5.55;;;5.05;;
7707;SDS011;3896;48.758;8.888;2023-06-26T10:26:30;5.93;;;5.13;;
7707;SDS011;3896;48.758;8.888;2023-06-26T10:28:58;6.30;;;4.57;;
7707;SDS011;3896;48.758;8.888;2023-06-26T10:31:25;5.70;;;5.07;;
7707;SDS011;3896;48.758;8.888;2023-06-26T10:33:53;5.55;;;5.05;;
7707;SDS011;3896;48.758;8.888;2023-06-26T10:36:20;5.78;;;5.18;;
7707;SDS011;3896;48.758;8.888;2023-06-26T10:38:52;5.07;;;4.30;;
7707;SDS011;3896;48.758;8.888;2023-06-26T10:41:23;4.75;;;4.30;;
7707;SDS011;3896;48.758;8.888;2023-06-26T10:43:49;6.72;;;4.85;;
7707;SDS011;3896;48.758;8.888;2023-06-26T10:46:48;5.47;;;4.70;;
7707;SDS011;3896;48.758;8.888;2023-06-26T10:49:18;4.65;;;4.20;;
7707;SDS011;3896;48.758;8.888;2023-06-26T10:51:46;6.88;;;4.30;;
7707;SDS011;3896;48.758;8.888;2023-06-26T10:54:14;5.47;;;4.55;;
7707;SDS011;3896;48.758;8.888;2023-06-26T10:56:44;5.07;;;4.45;;
7707;SDS011;3896;48.758;8.888;2023-06-26T10:59:18;5.20;;;4.70;;
7707;SDS011;3896;48.758;8.888;2023-06-26T11:01:57;5.65;;;4.68;;
7707;SDS011;3896;48.758;8.888;2023-06-26T11:04:40;5.43;;;4.93;;
7707;SDS011;3896;48.758;8.888;2023-06-26T11:09:57;5.10;;;4.60;;
7707;SDS011;3896;48.758;8.888;2023-06-26T11:12:41;5.65;;;4.88;;
7707;SDS011;3896;48.758;8.888;2023-06-26T11:15:11;5.05;;;4.65;;
7707;SDS011;3896;48.758;8.888;2023-06-26T11:17:44;5.72;;;4.80;;
7707;SDS011;3896;48.758;8.888;2023-06-26T11:20:15;4.95;;;4.55;;
7707;SDS011;3896;48.758;8.888;2023-06-26T11:22:43;4.97;;;4.47;;
7707;SDS011;3896;48.758;8.888;2023-06-26T11:25:09;6.57;;;5.03;;
7707;SDS011;3896;48.758;8.888;2023-06-26T11:27:39;4.78;;;4.15;;
7707;SDS011;3896;48.758;8.888;2023-06-26T11:30:06;5.40;;;4.90;;
7707;SDS011;3896;48.758;8.888;2023-06-26T11:32:33;5.28;;;4.65;;
7707;SDS011;3896;48.758;8.888;2023-06-26T11:34:59;7.25;;;4.50;;
7707;SDS011;3896;48.758;8.888;2023-06-26T11:37:25;6.57;;;4.82;;
7707;SDS011;3896;48.758;8.888;2023-06-26T11:39:51;10.43;;;5.05;;
7707;SDS011;3896;48.758;8.888;2023-06-26T11:42:20;5.57;;;4.78;;
7707;SDS011;3896;48.758;8.888;2023-06-26T11:44:46;9.50;;;4.78;;
7707;SDS011;3896;48.758;8.888;2023-06-26T11:47:18;10.90;;;4.60;;
7707;SDS011;3896;48.758;8.888;2023-06-26T11:49:45;6.78;;;4.50;;
7707;SDS011;3896;48.758;8.888;2023-06-26T11:52:12;7.28;;;4.85;;
7707;SDS011;3896;48.758;8.888;2023-06-26T11:54:38;5.45;;;4.22;;
7707;SDS011;3896;48.758;8.888;2023-06-26T11:57:04;5.28;;;4.53;;
7707;SDS011;3896;48.758;8.888;2023-06-26T11:59:37;5.18;;;4.53;;
7707;SDS011;3896;48.758;8.888;2023-06-26T12:02:05;6.38;;;4.50;;
7707;SDS011;3896;48.758;8.888;2023-06-26T12:04:35;5.40;;;4.22;;
7707;SDS011;3896;48.758;8.888;2023-06-26T12:07:03;7.72;;;5.13;;
7707;SDS011;3896;48.758;8.888;2023-06-26T12:09:32;5.90;;;4.47;;
7707;SDS011;3896;48.758;8.888;2023-06-26T12:11:58;6.88;;;4.00;;
7707;SDS011;3896;48.758;8.888;2023-06-26T12:14:25;5.47;;;4.78;;
7707;SDS011;3896;48.758;8.888;2023-06-26T12:16:53;5.30;;;4.80;;
7707;SDS011;3896;48.758;8.888;2023-06-26T12:19:23;4.47;;;4.13;;
7707;SDS011;3896;48.758;8.888;2023-06-26T12:21:51;9.25;;;4.82;;
7707;SDS011;3896;48.758;8.888;2023-06-26T12:24:18;5.72;;;4.75;;
7707;SDS011;3896;48.758;8.888;2023-06-26T12:26:47;4.35;;;3.95;;
7707;SDS011;3896;48.758;8.888;2023-06-26T12:29:20;5.38;;;3.95;;
7707;SDS011;3896;48.758;8.888;2023-06-26T12:31:53;4.70;;;4.30;;
7707;SDS011;3896;48.758;8.888;2023-06-26T12:34:19;4.50;;;3.80;;
7707;SDS011;3896;48.758;8.888;2023-06-26T12:37:06;5.75;;;4.78;;
7707;SDS011;3896;48.758;8.888;2023-06-26T12:44:44;4.70;;;4.30;;
7707;SDS011;3896;48.758;8.888;2023-06-26T12:47:10;6.63;;;3.88;;
7707;SDS011;3896;48.758;8.888;2023-06-26T12:49:39;6.35;;;4.72;;
7707;SDS011;3896;48.758;8.888;2023-06-26T12:52:07;4.68;;;4.22;;
7707;SDS011;3896;48.758;8.888;2023-06-26T12:54:36;4.65;;;4.22;;
7707;SDS011;3896;48.758;8.888;2023-06-26T12:57:02;6.78;;;4.38;;
7707;SDS011;3896;48.758;8.888;2023-06-26T12:59:29;4.57;;;4.18;;
7707;SDS011;3896;48.758;8.888;2023-06-26T13:01:55;6.82;;;4.05;;
7707;SDS011;3896;48.758;8.888;2023-06-26T13:04:21;4.60;;;3.95;;
7707;SDS011;3896;48.758;8.888;2023-06-26T13:06:47;6.40;;;3.92;;
7707;SDS011;3896;48.758;8.888;2023-06-26T13:09:12;4.30;;;3.90;;
7707;SDS011;3896;48.758;8.888;2023-06-26T13:11:38;5.28;;;4.22;;
7707;SDS011;3896;48.758;8.888;2023-06-26T13:14:04;4.18;;;3.80;;
7707;SDS011;3896;48.758;8.888;2023-06-26T13:16:30;4.40;;;4.00;;
7707;SDS011;3896;48.758;8.888;2023-06-26T13:18:57;4.00;;;3.70;;
7707;SDS011;3896;48.758;8.888;2023-06-26T13:21:23;4.55;;;3.70;;
7707;SDS011;3896;48.758;8.888;2023-06-26T13:23:49;4.10;;;3.78;;
7707;SDS011;3896;48.758;8.888;2023-06-26T13:26:14;4.68;;;4.28;;
7707;SDS011;3896;48.758;8.888;2023-06-26T13:28:40;4.40;;;3.80;;
7707;SDS011;3896;48.758;8.888;2023-06-26T13:31:06;4.30;;;3.90;;
7707;SDS011;3896;48.758;8.888;2023-06-26T13:33:31;3.55;;;3.25;;
7707;SDS011;3896;48.758;8.888;2023-06-26T13:35:57;5.35;;;4.00;;
7707;SDS011;3896;48.758;8.888;2023-06-26T13:38:23;6.45;;;3.83;;
7707;SDS011;3896;48.758;8.888;2023-06-26T13:40:50;4.85;;;3.20;;
7707;SDS011;3896;48.758;8.888;2023-06-26T13:43:20;4.38;;;3.20;;
7707;SDS011;3896;48.758;8.888;2023-06-26T13:45:47;4.57;;;3.33;;
7707;SDS011;3896;48.758;8.888;2023-06-26T13:48:12;4.03;;;3.55;;
7707;SDS011;3896;48.758;8.888;2023-06-26T13:50:38;3.35;;;3.05;;
7707;SDS011;3896;48.758;8.888;2023-06-26T13:53:04;4.45;;;2.92;;
7707;SDS011;3896;48.758;8.888;2023-06-26T13:55:29;3.30;;;3.10;;
7707;SDS011;3896;48.758;8.888;2023-06-26T13:57:55;3.40;;;3.10;;
7707;SDS011;3896;48.758;8.888;2023-06-26T14:00:21;3.95;;;3.00;;
7707;SDS011;3896;48.758;8.888;2023-06-26T14:02:47;3.78;;;3.10;;
7707;SDS011;3896;48.758;8.888;2023-06-26T14:05:13;3.70;;;2.85;;
7707;SDS011;3896;48.758;8.888;2023-06-26T14:07:39;2.95;;;2.65;;
7707;SDS011;3896;48.758;8.888;2023-06-26T14:10:05;3.85;;;2.78;;
7707;SDS011;3896;48.758;8.888;2023-06-26T14:12:31;2.83;;;2.60;;
7707;SDS011;3896;48.758;8.888;2023-06-26T14:14:57;3.45;;;2.65;;
7707;SDS011;3896;48.758;8.888;2023-06-26T14:17:24;2.70;;;2.25;;
7707;SDS011;3896;48.758;8.888;2023-06-26T14:19:51;2.67;;;2.33;;
7707;SDS011;3896;48.758;8.888;2023-06-26T14:22:17;4.93;;;2.63;;
7707;SDS011;3896;48.758;8.888;2023-06-26T14:24:43;5.93;;;2.67;;
7707;SDS011;3896;48.758;8.888;2023-06-26T14:27:08;4.18;;;2.55;;
7707;SDS011;3896;48.758;8.888;2023-06-26T14:29:35;3.17;;;2.70;;
7707;SDS011;3896;48.758;8.888;2023-06-26T14:32:01;3.85;;;3.00;;
7707;SDS011;3896;48.758;8.888;2023-06-26T14:34:27;2.80;;;2.60;;
7707;SDS011;3896;48.758;8.888;2023-06-26T14:36:53;4.60;;;2.50;;
7707;SDS011;3896;48.758;8.888;2023-06-26T14:39:18;4.38;;;2.55;;
7707;SDS011;3896;48.758;8.888;2023-06-26T14:41:44;4.22;;;2.85;;
7707;SDS011;3896;48.758;8.888;2023-06-26T14:44:09;2.97;;;2.63;;
7707;SDS011;3896;48.758;8.888;2023-06-26T14:46:36;5.18;;;3.08;;
7707;SDS011;3896;48.758;8.888;2023-06-26T14:49:02;3.33;;;3.03;;
7707;SDS011;3896;48.758;8.888;2023-06-26T14:51:27;2.92;;;2.72;;
7707;SDS011;3896;48.758;8.888;2023-06-26T14:53:53;3.45;;;3.17;;
7707;SDS011;3896;48.758;8.888;2023-06-26T14:56:19;3.38;;;3.05;;
7707;SDS011;3896;48.758;8.888;2023-06-26T14:58:44;3.50;;;2.95;;
7707;SDS011;3896;48.758;8.888;2023-06-26T15:01:12;5.53;;;3.42;;
7707;SDS011;3896;48.758;8.888;2023-06-26T15:03:40;4.45;;;3.38;;
7707;SDS011;3896;48.758;8.888;2023-06-26T15:06:06;4.72;;;3.35;;
7707;SDS011;3896;48.758;8.888;2023-06-26T15:08:32;4.22;;;3.60;;
7707;SDS011;3896;48.758;8.888;2023-06-26T15:10:57;4.03;;;3.72;;
7707;SDS011;3896;48.758;8.888;2023-06-26T15:13:23;4.43;;;3.55;;
7707;SDS011;3896;48.758;8.888;2023-06-26T15:15:49;3.85;;;3.17;;
7707;SDS011;3896;48.758;8.888;2023-06-26T15:18:14;3.75;;;3.30;;
7707;SDS011;3896;48.758;8.888;2023-06-26T15:20:40;5.50;;;4.30;;
7707;SDS011;3896;48.758;8.888;2023-06-26T15:23:05;5.28;;;3.63;;
7707;SDS011;3896;48.758;8.888;2023-06-26T15:25:31;5.32;;;3.53;;
7707;SDS011;3896;48.758;8.888;2023-06-26T15:27:59;4.35;;;3.80;;
7707;SDS011;3896;48.758;8.888;2023-06-26T15:30:25;4.13;;;3.63;;
7707;SDS011;3896;48.758;8.888;2023-06-26T15:32:51;4.57;;;4.13;;